createdAt,value
2018-07-11T00:01:20.782Z,101585.78
2018-07-11T00:04:25.794Z,101582.72
2018-07-11T00:07:30.572Z,101584.06
2018-07-11T00:10:35.546Z,101588.86
2018-07-11T00:13:43.176Z,101579.25
2018-07-11T00:16:53.085Z,101572.67
2018-07-11T00:19:57.902Z,101579.66
2018-07-11T00:23:02.778Z,101564.34
2018-07-11T00:26:11.531Z,101572.16
2018-07-11T00:29:15.913Z,101563.41
2018-07-11T00:32:20.727Z,101568.73
2018-07-11T00:35:25.563Z,101568.72
2018-07-11T00:38:32.226Z,101567.42
2018-07-11T00:41:36.975Z,101563.48
2018-07-11T00:44:42.320Z,101565.23
2018-07-11T00:47:46.947Z,101562.22
2018-07-11T00:50:51.707Z,101567.92
2018-07-11T00:53:56.439Z,101567.45
2018-07-11T00:57:02.372Z,101565.68
2018-07-11T01:00:06.911Z,101565.65
2018-07-11T01:03:11.487Z,101566.10
2018-07-11T01:06:16.005Z,101573.08
2018-07-11T01:09:20.442Z,101568.72
2018-07-11T01:12:25.135Z,101573.98
2018-07-11T01:15:29.810Z,101570.51
2018-07-11T01:18:35.079Z,101576.61
2018-07-11T01:21:40.142Z,101573.58
2018-07-11T01:24:44.938Z,101578.36
2018-07-11T01:27:49.763Z,101576.53
2018-07-11T01:30:54.097Z,101569.16
2018-07-11T01:33:59.005Z,101568.67
2018-07-11T01:37:03.890Z,101568.66
2018-07-11T01:40:08.183Z,101571.25
2018-07-11T01:43:13.005Z,101568.66
2018-07-11T01:46:17.879Z,101564.27
2018-07-11T01:49:22.786Z,101552.46
2018-07-11T01:52:44.433Z,101561.19
2018-07-11T01:55:48.868Z,101555.03
2018-07-11T01:58:53.292Z,101562.05
2018-07-11T02:01:57.800Z,101559.86
2018-07-11T02:05:02.201Z,101554.59
2018-07-11T02:08:06.793Z,101553.27
2018-07-11T02:11:11.254Z,101551.97
2018-07-11T02:14:15.700Z,101546.72
2018-07-11T02:17:20.163Z,101538.87
2018-07-11T02:20:24.586Z,101549.80
2018-07-11T02:23:34.847Z,101544.98
2018-07-11T02:26:39.556Z,101551.09
2018-07-11T02:29:43.998Z,101548.94
2018-07-11T02:32:48.525Z,101551.09
2018-07-11T02:35:52.947Z,101555.04
2018-07-11T02:38:57.292Z,101552.00
2018-07-11T02:42:01.564Z,101550.25
2018-07-11T02:45:05.954Z,101550.70
2018-07-11T02:48:10.297Z,101546.29
2018-07-11T02:51:14.885Z,101547.13
2018-07-11T02:54:19.292Z,101543.62
2018-07-11T02:57:23.798Z,101534.42
2018-07-11T03:00:28.177Z,101531.33
2018-07-11T03:03:32.664Z,101533.08
2018-07-11T03:06:37.305Z,101528.21
2018-07-11T03:09:42.062Z,101520.31
2018-07-11T03:12:46.837Z,101519.43
2018-07-11T03:15:51.308Z,101514.98
2018-07-11T03:18:56.028Z,101511.00
2018-07-11T03:22:01.005Z,101511.40
2018-07-11T03:25:05.801Z,101512.25
2018-07-11T03:28:11.137Z,101509.62
2018-07-11T03:31:16.125Z,101510.96
2018-07-11T03:34:21.097Z,101510.50
2018-07-11T03:37:26.447Z,101513.11
2018-07-11T03:40:31.239Z,101517.47
2018-07-11T03:43:36.321Z,101515.32
2018-07-11T03:46:41.472Z,101512.30
2018-07-11T03:49:46.288Z,101513.22
2018-07-11T03:52:51.392Z,101516.76
2018-07-11T03:55:56.076Z,101513.69
2018-07-11T03:59:01.466Z,101517.23
2018-07-11T04:02:06.807Z,101515.95
2018-07-11T04:05:11.645Z,101515.95
2018-07-11T04:08:16.713Z,101508.99
2018-07-11T04:11:21.701Z,101510.31
2018-07-11T04:14:26.795Z,101519.06
2018-07-11T04:17:32.233Z,101518.20
2018-07-11T04:20:37.463Z,101522.16
2018-07-11T04:23:42.812Z,101525.23
2018-07-11T04:26:48.021Z,101528.28
2018-07-11T04:29:53.288Z,101518.69
2018-07-11T04:32:58.561Z,101515.64
2018-07-11T04:36:03.788Z,101516.94
2018-07-11T04:39:09.132Z,101516.08
2018-07-11T04:42:14.548Z,101517.84
2018-07-11T04:45:19.748Z,101515.24
2018-07-11T04:48:28.555Z,101518.31
2018-07-11T04:51:34.104Z,101521.39
2018-07-11T04:54:40.371Z,101521.82
2018-07-11T04:57:46.876Z,101514.84
2018-07-11T05:00:53.215Z,101523.23
2018-07-11T05:03:58.823Z,101520.61
2018-07-11T05:07:04.475Z,101515.83
2018-07-11T05:10:10.021Z,101515.37
2018-07-11T05:13:16.317Z,101518.49
2018-07-11T05:16:21.682Z,101507.55
2018-07-11T05:19:27.132Z,101518.52
2018-07-11T05:22:32.371Z,101508.49
2018-07-11T05:25:37.923Z,101512.88
2018-07-11T05:28:44.333Z,101508.06
2018-07-11T05:31:52.242Z,101508.93
2018-07-11T05:35:04.428Z,101508.08
2018-07-11T05:38:09.800Z,101513.80
2018-07-11T05:41:15.603Z,101509.86
2018-07-11T05:44:21.720Z,101509.88
2018-07-11T05:47:27.945Z,101506.80
2018-07-11T05:50:34.729Z,101508.58
2018-07-11T05:53:40.924Z,101499.83
2018-07-11T05:56:57.862Z,101503.34
2018-07-11T06:00:03.847Z,101504.67
2018-07-11T06:03:10.453Z,101502.96
2018-07-11T06:06:16.628Z,101503.81
2018-07-11T06:09:41.104Z,101503.34
2018-07-11T06:12:46.588Z,101501.58
2018-07-11T06:15:53.582Z,101505.05
2018-07-11T06:18:59.398Z,101505.03
2018-07-11T06:22:05.064Z,101512.02
2018-07-11T06:25:11.331Z,101513.78
2018-07-11T06:28:17.102Z,101516.81
2018-07-11T06:31:26.010Z,101515.93
2018-07-11T06:34:34.953Z,101523.37
2018-07-11T06:37:40.615Z,101521.16
2018-07-11T06:40:45.240Z,101520.70
2018-07-11T06:43:50.169Z,101520.25
2018-07-11T06:46:55.035Z,101517.56
2018-07-11T06:49:59.835Z,101521.01
2018-07-11T06:53:07.534Z,101521.86
2018-07-11T06:56:12.882Z,101520.47
2018-07-11T06:59:19.935Z,101523.52
2018-07-11T07:02:25.257Z,101523.01
2018-07-11T07:05:31.056Z,101520.34
2018-07-11T07:08:36.162Z,101517.72
2018-07-11T07:11:41.446Z,101514.15
2018-07-11T07:14:46.626Z,101514.13
2018-07-11T07:17:51.922Z,101518.92
2018-07-11T07:20:59.791Z,101514.87
2018-07-11T07:24:05.221Z,101514.77
2018-07-11T07:27:10.219Z,101511.16
2018-07-11T07:30:17.080Z,101515.45
2018-07-11T07:33:22.721Z,101510.55
2018-07-11T07:36:27.481Z,101501.23
2018-07-11T07:39:32.207Z,101507.34
2018-07-11T07:42:38.433Z,101503.74
2018-07-11T07:45:46.150Z,101506.25
2018-07-11T07:48:52.341Z,101500.91
2018-07-11T07:51:58.246Z,101507.02
2018-07-11T07:55:03.006Z,101498.19
2018-07-11T07:58:07.544Z,101493.56
2018-07-11T08:01:11.939Z,101493.31
2018-07-11T08:04:16.372Z,101498.30
2018-07-11T08:07:20.829Z,101486.27
2018-07-11T08:10:25.230Z,101485.14
2018-07-11T08:13:29.765Z,101479.84
2018-07-11T08:16:34.196Z,101478.60
2018-07-11T08:19:38.602Z,101475.27
2018-07-11T08:23:26.257Z,101473.10
2018-07-11T08:27:49.697Z,101476.48
2018-07-11T08:31:41.143Z,101468.59
2018-07-11T08:35:10.997Z,101466.81
2018-07-11T08:40:36.338Z,101459.20
2018-07-11T08:44:03.589Z,101462.84
2018-07-11T08:51:36.340Z,101461.13
2018-07-11T08:54:58.558Z,101464.39
2018-07-11T08:58:25.519Z,101460.76
2018-07-11T09:02:45.752Z,101460.51
2018-07-11T09:06:14.665Z,101458.84
2018-07-11T09:09:46.610Z,101456.70
2018-07-11T09:13:03.881Z,101466.19
2018-07-11T09:18:35.077Z,101467.98
2018-07-11T09:22:26.153Z,101461.70
2018-07-11T09:25:30.726Z,101459.63
2018-07-11T09:28:35.133Z,101451.72
2018-07-11T09:31:39.421Z,101457.91
2018-07-11T09:34:44.302Z,101450.98
2018-07-11T09:37:48.706Z,101441.54
2018-07-11T09:40:53.112Z,101444.81
2018-07-11T09:43:57.455Z,101444.48
2018-07-11T09:47:05.941Z,101442.84
2018-07-11T09:50:10.344Z,101442.64
2018-07-11T09:53:14.765Z,101443.41
2018-07-11T09:56:19.089Z,101442.95
2018-07-11T09:59:24.041Z,101441.34
2018-07-11T10:02:28.460Z,101437.81
2018-07-11T10:05:32.786Z,101443.70
2018-07-11T10:08:37.508Z,101434.98
2018-07-11T10:11:42.056Z,101434.16
2018-07-11T10:14:46.680Z,101431.72
2018-07-11T10:17:51.386Z,101428.42
2018-07-11T10:20:55.740Z,101422.18
2018-07-11T10:24:00.430Z,101415.73
2018-07-11T10:27:04.948Z,101427.86
2018-07-11T10:30:09.402Z,101421.98
2018-07-11T10:33:14.259Z,101417.70
2018-07-11T10:36:18.926Z,101410.81
2018-07-11T10:39:23.263Z,101412.94
2018-07-11T10:42:28.252Z,101408.23
2018-07-11T10:45:32.581Z,101412.41
2018-07-11T10:48:37.311Z,101412.63
2018-07-11T10:51:41.656Z,101415.05
2018-07-11T10:54:46.068Z,101402.41
2018-07-11T10:57:50.712Z,101414.80
2018-07-11T11:01:05.698Z,101409.67
2018-07-11T11:03:59.639Z,101398.73
2018-07-11T11:07:03.790Z,101403.51
2018-07-11T11:10:08.354Z,101403.41
2018-07-11T11:13:12.788Z,101399.58
2018-07-11T11:16:17.153Z,101396.28
2018-07-11T11:19:21.496Z,101398.98
2018-07-11T11:22:25.898Z,101390.75
2018-07-11T11:25:30.509Z,101394.59
2018-07-11T11:28:34.938Z,101395.67
2018-07-11T11:31:39.423Z,101396.21
2018-07-11T11:34:43.936Z,101393.80
2018-07-11T11:37:48.677Z,101398.77
2018-07-11T11:40:53.043Z,101399.73
2018-07-11T11:43:57.396Z,101401.02
2018-07-11T11:47:01.907Z,101397.54
2018-07-11T11:50:06.293Z,101395.49
2018-07-11T11:53:10.781Z,101394.09
2018-07-11T11:56:15.148Z,101390.78
2018-07-11T11:59:19.582Z,101395.72
2018-07-11T12:02:23.968Z,101395.62
2018-07-11T12:05:28.306Z,101392.43
2018-07-11T12:08:32.833Z,101398.83
2018-07-11T12:11:37.245Z,101400.20
2018-07-11T12:14:41.665Z,101392.07
2018-07-11T12:17:46.083Z,101401.63
2018-07-11T12:20:50.561Z,101391.20
2018-07-11T12:23:54.967Z,101389.97
2018-07-11T12:26:59.620Z,101384.89
2018-07-11T12:30:03.967Z,101390.05
2018-07-11T12:33:08.394Z,101390.60
2018-07-11T12:36:12.843Z,101393.50
2018-07-11T12:39:17.264Z,101386.37
2018-07-11T12:42:21.761Z,101399.02
2018-07-11T12:45:26.161Z,101392.84
2018-07-11T12:48:35.719Z,101393.03
2018-07-11T12:51:40.029Z,101394.59
2018-07-11T12:54:44.406Z,101384.16
2018-07-11T12:57:48.679Z,101393.87
2018-07-11T13:00:53.007Z,101387.07
2018-07-11T13:03:58.625Z,101392.95
2018-07-11T13:07:03.840Z,101383.52
2018-07-11T13:10:08.880Z,101387.71
2018-07-11T13:13:13.380Z,101383.41
2018-07-11T13:16:18.095Z,101381.14
2018-07-11T13:19:22.561Z,101386.23
2018-07-11T13:22:26.928Z,101386.40
2018-07-11T13:25:31.289Z,101391.71
2018-07-11T13:28:35.665Z,101387.43
2018-07-11T13:31:40.453Z,101376.37
2018-07-11T13:34:44.865Z,101373.80
2018-07-11T13:37:49.273Z,101371.66
2018-07-11T13:40:53.697Z,101373.70
2018-07-11T13:43:58.121Z,101367.16
2018-07-11T13:47:06.486Z,101376.14
2018-07-11T13:50:10.688Z,101369.23
2018-07-11T13:53:15.036Z,101371.84
2018-07-11T13:56:19.397Z,101366.16
2018-07-11T13:59:23.776Z,101368.84
2018-07-11T14:02:28.366Z,101368.05
2018-07-11T14:05:32.719Z,101368.84
2018-07-11T14:08:37.105Z,101370.82
2018-07-11T14:11:41.480Z,101363.41
2018-07-11T14:14:45.901Z,101362.95
2018-07-11T14:17:50.404Z,101361.14
2018-07-11T14:20:54.683Z,101363.53
2018-07-11T14:23:59.065Z,101361.16
2018-07-11T14:27:03.544Z,101365.80
2018-07-11T14:30:07.887Z,101356.88
2018-07-11T14:33:12.260Z,101363.82
2018-07-11T14:36:17.103Z,101357.36
2018-07-11T14:39:21.487Z,101352.33
2018-07-11T14:42:25.879Z,101356.73
2018-07-11T14:45:33.814Z,101349.71
2018-07-11T14:48:38.312Z,101351.51
2018-07-11T14:51:42.715Z,101357.12
2018-07-11T14:54:47.102Z,101357.45
2018-07-11T14:57:51.362Z,101357.37
2018-07-11T15:00:55.678Z,101355.91
2018-07-11T15:04:00.051Z,101360.58
2018-07-11T15:07:04.552Z,101354.47
2018-07-11T15:10:08.868Z,101349.50
2018-07-11T15:13:13.277Z,101347.19
2018-07-11T15:16:17.979Z,101348.78
2018-07-11T15:19:22.358Z,101345.06
2018-07-11T15:22:27.293Z,101340.26
2018-07-11T15:25:32.624Z,101341.23
2018-07-11T15:28:37.037Z,101340.36
2018-07-11T15:31:41.336Z,101341.50
2018-07-11T15:34:45.801Z,101341.69
2018-07-11T15:37:50.294Z,101349.15
2018-07-11T15:40:55.307Z,101345.92
2018-07-11T15:43:59.961Z,101345.28
2018-07-11T16:00:12.864Z,101336.01
2018-07-11T16:03:18.674Z,101334.69
2018-07-11T16:06:23.076Z,101330.77
2018-07-11T16:09:27.425Z,101329.92
2018-07-11T16:12:31.809Z,101334.19
2018-07-11T16:15:36.153Z,101338.91
2018-07-11T16:18:40.561Z,101334.02
2018-07-11T16:21:44.923Z,101335.75
2018-07-11T16:24:49.572Z,101341.34
2018-07-11T16:27:53.982Z,101335.63
2018-07-11T16:30:58.387Z,101337.91
2018-07-11T16:34:03.628Z,101339.80
2018-07-11T16:37:08.313Z,101335.55
2018-07-11T16:40:12.967Z,101335.55
2018-07-11T16:43:17.350Z,101335.05
2018-07-11T16:46:22.352Z,101329.31
2018-07-11T16:49:27.010Z,101337.14
2018-07-11T16:52:31.473Z,101337.92
2018-07-11T16:55:36.762Z,101338.61
2018-07-11T16:58:51.674Z,101337.92
2018-07-11T17:02:00.204Z,101340.30
2018-07-11T17:05:10.138Z,101341.26
2018-07-11T17:08:17.903Z,101344.93
2018-07-11T17:11:27.721Z,101347.58
2018-07-11T17:14:32.447Z,101350.17
2018-07-11T17:17:37.190Z,101350.27
2018-07-11T17:20:41.870Z,101353.75
2018-07-11T17:23:50.905Z,101349.80
2018-07-11T17:26:57.727Z,101350.53
2018-07-11T17:30:04.093Z,101349.30
2018-07-11T17:33:09.780Z,101348.40
2018-07-11T17:36:14.564Z,101354.23
2018-07-11T17:39:19.392Z,101355.18
2018-07-11T17:42:29.052Z,101355.12
2018-07-11T17:45:34.108Z,101357.83
2018-07-11T17:49:21.155Z,101354.08
2018-07-11T17:52:26.810Z,101356.82
2018-07-11T17:55:35.484Z,101358.26
2018-07-11T17:58:51.938Z,101350.61
2018-07-11T18:01:58.047Z,101353.34
2018-07-11T18:05:13.741Z,101360.84
2018-07-11T18:08:19.164Z,101363.22
2018-07-11T18:11:28.557Z,101362.33
2018-07-11T18:15:15.498Z,101366.81
2018-07-11T18:18:32.603Z,101368.77
2018-07-11T18:21:49.425Z,101370.09
2018-07-11T18:25:03.060Z,101368.69
2018-07-11T18:28:27.893Z,101369.55
2018-07-11T18:31:50.158Z,101367.44
2018-07-11T18:35:17.191Z,101366.02
2018-07-11T18:38:32.897Z,101372.58
2018-07-11T18:41:49.365Z,101377.78
2018-07-11T18:47:11.315Z,101382.59
2018-07-11T18:52:32.904Z,101376.48
2018-07-11T18:57:09.418Z,101377.28
2018-07-11T19:01:36.513Z,101384.04
2018-07-11T19:04:59.442Z,101383.30
2018-07-11T19:08:16.453Z,101381.30
2018-07-11T19:11:28.521Z,101380.17
2018-07-11T19:14:41.636Z,101377.92
2018-07-11T19:18:22.721Z,101375.77
2018-07-11T19:22:44.885Z,101379.61
2018-07-11T19:26:01.255Z,101381.95
2018-07-11T19:29:15.869Z,101378.75
2018-07-11T19:32:34.857Z,101388.30
2018-07-11T19:36:50.395Z,101388.52
2018-07-11T19:41:12.359Z,101387.13
2018-07-11T19:45:36.140Z,101384.38
2018-07-11T19:49:00.037Z,101390.88
2018-07-11T19:53:42.639Z,101393.33
2018-07-11T19:56:48.884Z,101404.16
2018-07-11T19:59:53.344Z,101401.67
2018-07-11T20:02:58.306Z,101400.43
2018-07-11T20:06:02.945Z,101409.80
2018-07-11T20:09:08.747Z,101409.94
2018-07-11T20:12:13.350Z,101406.11
2018-07-11T20:15:18.157Z,101408.45
2018-07-11T20:18:23.259Z,101412.48
2018-07-11T20:21:27.769Z,101415.72
2018-07-11T20:24:32.697Z,101414.44
2018-07-11T20:27:37.443Z,101408.40
2018-07-11T20:30:42.125Z,101406.27
2018-07-11T20:33:46.806Z,101403.70
2018-07-11T20:36:51.463Z,101405.94
2018-07-11T20:39:56.116Z,101405.13
2018-07-11T20:43:01.022Z,101407.81
2018-07-11T20:46:06.696Z,101406.55
2018-07-11T20:49:16.493Z,101406.61
2018-07-11T20:52:21.010Z,101405.75
2018-07-11T20:55:25.746Z,101402.30
2018-07-11T20:58:47.154Z,101404.52
2018-07-11T21:02:08.646Z,101409.34
2018-07-11T21:08:34.435Z,101397.98
2018-07-11T21:14:58.563Z,101408.55
2018-07-11T21:19:30.274Z,101404.22
2018-07-11T21:22:34.936Z,101402.48
2018-07-11T21:25:39.609Z,101400.27
2018-07-11T21:28:44.378Z,101399.40
2018-07-11T21:31:49.018Z,101402.07
2018-07-11T21:34:53.953Z,101402.52
2018-07-11T21:37:58.532Z,101395.53
2018-07-11T21:41:03.229Z,101395.52
2018-07-11T21:44:07.759Z,101388.04
2018-07-11T21:47:12.518Z,101384.97
2018-07-11T21:50:16.746Z,101388.95
2018-07-11T21:53:21.405Z,101387.63
2018-07-11T21:56:26.053Z,101386.75
2018-07-11T21:59:30.823Z,101384.59
2018-07-11T22:02:35.658Z,101387.23
2018-07-11T22:05:40.593Z,101386.37
2018-07-11T22:08:45.441Z,101390.31
2018-07-11T22:11:49.984Z,101385.94
2018-07-11T22:14:54.877Z,101387.27
2018-07-11T22:18:16.911Z,101385.08
2018-07-11T22:21:19.738Z,101385.95
2018-07-11T22:24:22.689Z,101389.91
2018-07-11T22:27:25.544Z,101389.91
2018-07-11T22:30:29.523Z,101393.41
2018-07-11T22:33:32.975Z,101396.03
2018-07-11T22:36:36.015Z,101389.47
2018-07-11T22:39:39.311Z,101385.96
2018-07-11T22:42:42.392Z,101380.23
2018-07-11T22:45:45.327Z,101388.55
2018-07-11T22:48:48.299Z,101385.92
2018-07-11T22:51:51.613Z,101389.46
2018-07-11T22:54:54.710Z,101395.59
2018-07-11T22:57:57.557Z,101393.39
2018-07-11T23:01:00.391Z,101386.80
2018-07-11T23:04:03.236Z,101399.54
2018-07-11T23:07:06.203Z,101400.41
2018-07-11T23:10:09.130Z,101403.93
2018-07-11T23:13:12.085Z,101402.62
2018-07-11T23:16:14.928Z,101400.41
2018-07-11T23:19:17.916Z,101398.20
2018-07-11T23:22:20.781Z,101392.52
2018-07-11T23:25:23.639Z,101398.64
2018-07-11T23:28:26.588Z,101397.78
2018-07-11T23:31:29.622Z,101391.66
2018-07-11T23:34:32.511Z,101393.41
2018-07-11T23:37:35.437Z,101392.97
2018-07-11T23:40:38.232Z,101398.21
2018-07-11T23:43:41.222Z,101390.34
2018-07-11T23:46:44.145Z,101390.78
2018-07-11T23:49:47.095Z,101393.42
2018-07-11T23:52:49.993Z,101391.20
2018-07-11T23:55:52.926Z,101390.32
2018-07-11T23:58:55.769Z,101389.04
